createdAt,value
2017-03-11T00:00:14.457Z,1019.48
2017-03-11T00:05:11.370Z,1019.42
2017-03-11T00:10:07.777Z,1019.38
2017-03-11T00:15:04.060Z,1019.29
2017-03-11T00:20:00.971Z,1019.41
2017-03-11T00:24:58.452Z,1019.41
2017-03-11T00:29:55.037Z,1019.29
2017-03-11T00:34:51.960Z,1019.31
2017-03-11T00:39:49.708Z,1019.33
2017-03-11T00:44:46.020Z,1019.39
2017-03-11T00:49:42.441Z,1019.43
2017-03-11T00:54:38.438Z,1019.50
2017-03-11T00:59:35.299Z,1019.43
2017-03-11T01:04:32.571Z,1019.36
2017-03-11T01:09:29.655Z,1019.31
2017-03-11T01:14:26.221Z,1019.31
2017-03-11T01:19:25.700Z,1019.13
2017-03-11T01:24:21.383Z,1018.93
2017-03-11T01:29:18.053Z,1018.82
2017-03-11T01:34:14.881Z,1018.63
2017-03-11T01:39:11.427Z,1018.52
2017-03-11T01:44:09.199Z,1018.53
2017-03-11T01:49:06.522Z,1018.49
2017-03-11T01:54:02.744Z,1018.58
2017-03-11T01:58:59.822Z,1018.35
2017-03-11T02:03:56.381Z,1018.48
2017-03-11T02:08:52.935Z,1018.36
2017-03-11T02:13:49.924Z,1018.34
2017-03-11T02:18:46.564Z,1018.27
2017-03-11T02:23:42.549Z,1018.19
2017-03-11T02:28:39.028Z,1018.22
2017-03-11T02:33:35.473Z,1018.28
2017-03-11T02:38:31.780Z,1018.13
2017-03-11T02:43:27.942Z,1018.09
2017-03-11T02:48:24.183Z,1018.19
2017-03-11T02:53:21.673Z,1018.03
2017-03-11T02:58:17.663Z,1018.01
2017-03-11T03:03:13.819Z,1017.97
2017-03-11T03:08:10.165Z,1018.00
2017-03-11T03:13:06.862Z,1017.90
2017-03-11T03:18:03.241Z,1017.93
2017-03-11T03:22:59.680Z,1017.95
2017-03-11T03:27:55.986Z,1017.89
2017-03-11T03:32:52.224Z,1017.91
2017-03-11T03:37:48.823Z,1017.89
2017-03-11T03:42:45.105Z,1017.78
2017-03-11T03:47:41.885Z,1017.82
2017-03-11T03:52:38.365Z,1017.69
2017-03-11T03:57:34.726Z,1017.77
2017-03-11T04:02:31.121Z,1017.69
2017-03-11T04:07:27.467Z,1017.75
2017-03-11T04:12:24.132Z,1017.75
2017-03-11T04:17:20.555Z,1017.71
2017-03-11T04:22:17.266Z,1017.55
2017-03-11T04:27:13.648Z,1017.54
2017-03-11T04:32:10.107Z,1017.46
2017-03-11T04:37:07.329Z,1017.53
2017-03-11T04:42:03.752Z,1017.44
2017-03-11T04:47:00.347Z,1017.50
2017-03-11T04:51:56.620Z,1017.42
2017-03-11T04:56:53.070Z,1017.42
2017-03-11T05:01:49.740Z,1017.29
2017-03-11T05:06:46.095Z,1017.20
2017-03-11T05:11:43.634Z,1017.08
2017-03-11T05:16:39.932Z,1017.11
2017-03-11T05:21:37.143Z,1017.04
2017-03-11T05:26:34.251Z,1016.98
2017-03-11T05:31:31.170Z,1016.92
2017-03-11T05:36:27.579Z,1016.92
2017-03-11T05:41:23.773Z,1016.93
2017-03-11T05:46:20.750Z,1016.79
2017-03-11T05:51:17.455Z,1016.87
2017-03-11T05:56:13.892Z,1016.94
2017-03-11T06:01:10.285Z,1016.89
2017-03-11T06:06:07.392Z,1016.91
2017-03-11T06:11:03.950Z,1016.87
2017-03-11T06:16:00.554Z,1016.96
2017-03-11T06:20:57.092Z,1016.95
2017-03-11T06:25:53.460Z,1016.93
2017-03-11T06:30:51.219Z,1017.12
2017-03-11T06:35:47.685Z,1017.02
2017-03-11T06:40:43.889Z,1017.03
2017-03-11T06:45:40.689Z,1016.94
2017-03-11T06:50:37.161Z,1016.97
2017-03-11T06:55:33.820Z,1017.02
2017-03-11T07:00:30.649Z,1017.01
2017-03-11T07:05:27.290Z,1017.05
2017-03-11T07:10:24.039Z,1016.94
2017-03-11T07:15:20.739Z,1016.96
2017-03-11T07:20:18.503Z,1016.94
2017-03-11T07:25:15.274Z,1016.79
2017-03-11T07:30:12.115Z,1016.84
2017-03-11T07:35:09.155Z,1016.85
2017-03-11T07:40:06.814Z,1016.77
2017-03-11T07:45:03.640Z,1016.77
2017-03-11T07:50:00.374Z,1016.85
2017-03-11T07:54:57.431Z,1016.81
2017-03-11T07:59:53.992Z,1016.76
2017-03-11T08:04:50.821Z,1016.72
2017-03-11T08:09:47.592Z,1016.79
2017-03-11T08:14:44.260Z,1016.89
2017-03-11T08:19:41.258Z,1016.83
2017-03-11T08:24:38.168Z,1016.92
2017-03-11T08:29:34.603Z,1016.84
2017-03-11T08:34:31.471Z,1016.74
2017-03-11T08:39:29.385Z,1016.71
2017-03-11T08:44:25.945Z,1016.79
2017-03-11T08:49:22.637Z,1016.78
2017-03-11T08:54:19.726Z,1016.88
2017-03-11T08:59:16.613Z,1016.82
2017-03-11T09:04:12.855Z,1016.79
2017-03-11T09:09:09.266Z,1016.77
2017-03-11T09:14:06.021Z,1016.82
2017-03-11T09:19:02.779Z,1016.74
2017-03-11T09:23:59.126Z,1016.75
2017-03-11T09:28:56.388Z,1016.65
2017-03-11T09:33:53.198Z,1016.58
2017-03-11T09:38:50.248Z,1016.55
2017-03-11T09:43:47.324Z,1016.46
2017-03-11T09:48:44.565Z,1016.37
2017-03-11T09:53:41.395Z,1016.37
2017-03-11T09:58:38.754Z,1016.33
2017-03-11T10:03:35.328Z,1016.33
2017-03-11T10:08:31.865Z,1016.34
2017-03-11T10:13:28.744Z,1016.30
2017-03-11T10:18:25.685Z,1016.23
2017-03-11T10:23:22.633Z,1016.21
2017-03-11T10:28:19.644Z,1016.21
2017-03-11T10:33:16.024Z,1016.26
2017-03-11T10:38:13.026Z,1016.24
2017-03-11T10:43:09.711Z,1016.30
2017-03-11T10:48:07.081Z,1016.21
2017-03-11T10:53:04.793Z,1016.19
2017-03-11T10:58:01.558Z,1016.24
2017-03-11T11:02:58.452Z,1016.18
2017-03-11T11:07:56.150Z,1016.13
2017-03-11T11:12:53.971Z,1016.22
2017-03-11T11:17:51.382Z,1016.03
2017-03-11T11:22:48.975Z,1016.04
2017-03-11T11:27:46.366Z,1016.03
2017-03-11T11:32:43.740Z,1015.95
2017-03-11T11:37:41.279Z,1015.84
2017-03-11T11:42:38.016Z,1015.71
2017-03-11T11:47:35.153Z,1015.56
2017-03-11T11:52:31.988Z,1015.45
2017-03-11T11:57:28.987Z,1015.41
2017-03-11T12:02:25.672Z,1015.45
2017-03-11T12:07:22.686Z,1015.31
2017-03-11T12:12:18.470Z,1015.30
2017-03-11T12:17:14.863Z,1015.14
2017-03-11T12:22:11.338Z,1015.15
2017-03-11T12:27:07.275Z,1015.12
2017-03-11T12:32:02.633Z,1015.05
2017-03-11T12:36:59.168Z,1014.98
2017-03-11T12:41:55.552Z,1014.93
2017-03-11T12:46:52.038Z,1014.99
2017-03-11T12:51:48.734Z,1015.00
2017-03-11T12:56:45.166Z,1014.91
2017-03-11T13:01:41.839Z,1014.88
2017-03-11T13:06:39.113Z,1014.79
2017-03-11T13:11:35.744Z,1014.81
2017-03-11T13:16:33.493Z,1014.83
2017-03-11T13:21:29.963Z,1014.85
2017-03-11T13:26:26.915Z,1014.79
2017-03-11T13:31:24.073Z,1014.78
2017-03-11T13:36:20.921Z,1014.61
2017-03-11T13:41:17.037Z,1014.59
2017-03-11T13:46:13.682Z,1014.53
2017-03-11T13:51:10.097Z,1014.51
2017-03-11T13:56:06.983Z,1014.55
2017-03-11T14:01:03.622Z,1014.51
2017-03-11T14:06:00.000Z,1014.53
2017-03-11T14:10:56.398Z,1014.46
2017-03-11T14:15:53.875Z,1014.38
2017-03-11T14:20:51.341Z,1014.43
2017-03-11T14:25:48.377Z,1014.35
2017-03-11T14:30:44.600Z,1014.23
2017-03-11T14:35:40.723Z,1014.20
2017-03-11T14:40:37.747Z,1014.17
2017-03-11T14:45:34.468Z,1014.19
2017-03-11T14:50:30.684Z,1014.12
2017-03-11T14:55:27.565Z,1014.05
2017-03-11T15:00:24.695Z,1014.10
2017-03-11T15:05:21.466Z,1014.00
2017-03-11T15:10:17.786Z,1014.13
2017-03-11T15:15:14.068Z,1013.98
2017-03-11T15:20:10.521Z,1013.99
2017-03-11T15:25:07.007Z,1013.98
2017-03-11T15:30:03.485Z,1013.92
2017-03-11T15:35:00.429Z,1013.88
2017-03-11T15:39:57.062Z,1013.89
2017-03-11T15:44:55.873Z,1013.84
2017-03-11T15:49:51.520Z,1013.79
2017-03-11T15:54:48.170Z,1013.74
2017-03-11T15:59:44.853Z,1013.74
2017-03-11T16:04:41.506Z,1013.65
2017-03-11T16:09:38.308Z,1013.71
2017-03-11T16:14:35.586Z,1013.60
2017-03-11T16:19:32.403Z,1013.68
2017-03-11T16:24:29.094Z,1013.60
2017-03-11T16:29:26.221Z,1013.60
2017-03-11T16:34:22.855Z,1013.64
2017-03-11T16:39:19.524Z,1013.65
2017-03-11T16:44:15.982Z,1013.59
2017-03-11T16:49:12.386Z,1013.60
2017-03-11T16:54:09.082Z,1013.66
2017-03-11T16:59:05.462Z,1013.68
2017-03-11T17:04:02.984Z,1013.57
2017-03-11T17:08:59.581Z,1013.67
2017-03-11T17:13:56.255Z,1013.68
2017-03-11T17:18:52.882Z,1013.68
2017-03-11T17:23:50.022Z,1013.79
2017-03-11T17:28:46.784Z,1013.79
2017-03-11T17:33:42.942Z,1013.79
2017-03-11T17:38:39.161Z,1013.83
2017-03-11T17:43:35.754Z,1013.90
2017-03-11T17:48:32.522Z,1013.93
2017-03-11T17:53:29.034Z,1013.99
2017-03-11T17:58:25.687Z,1013.97
2017-03-11T18:03:22.041Z,1014.09
2017-03-11T18:08:18.825Z,1014.04
2017-03-11T18:13:15.644Z,1014.04
2017-03-11T18:18:12.065Z,1014.00
2017-03-11T18:23:08.677Z,1013.97
2017-03-11T18:28:06.857Z,1013.97
2017-03-11T18:33:03.083Z,1013.94
2017-03-11T18:37:59.871Z,1013.91
2017-03-11T18:42:56.148Z,1014.00
2017-03-11T18:47:52.270Z,1013.87
2017-03-11T18:52:49.330Z,1013.85
2017-03-11T18:57:45.977Z,1013.91
2017-03-11T19:02:42.320Z,1013.91
2017-03-11T19:07:38.786Z,1013.85
2017-03-11T19:12:35.501Z,1013.81
2017-03-11T19:17:31.791Z,1013.82
2017-03-11T19:22:28.537Z,1013.78
2017-03-11T19:27:24.934Z,1013.68
2017-03-11T19:32:21.453Z,1013.70
2017-03-11T19:37:18.701Z,1013.61
2017-03-11T19:42:15.316Z,1013.58
2017-03-11T19:47:11.847Z,1013.56
2017-03-11T19:52:08.417Z,1013.53
2017-03-11T19:57:05.863Z,1013.59
2017-03-11T20:02:02.269Z,1013.63
2017-03-11T20:06:59.239Z,1013.57
2017-03-11T20:11:56.016Z,1013.51
2017-03-11T20:16:52.203Z,1013.51
2017-03-11T20:21:49.037Z,1013.39
2017-03-11T20:26:45.618Z,1013.43
2017-03-11T20:31:41.869Z,1013.40
2017-03-11T20:36:38.987Z,1013.38
2017-03-11T20:41:35.220Z,1013.32
2017-03-11T20:46:32.134Z,1013.27
2017-03-11T20:51:28.599Z,1013.27
2017-03-11T20:56:25.360Z,1013.18
2017-03-11T21:01:21.439Z,1013.20
2017-03-11T21:06:17.870Z,1013.21
2017-03-11T21:11:14.476Z,1013.14
2017-03-11T21:16:11.088Z,1013.09
2017-03-11T21:21:07.901Z,1013.10
2017-03-11T21:26:04.419Z,1013.16
2017-03-11T21:31:00.841Z,1013.26
2017-03-11T21:35:58.723Z,1013.21
2017-03-11T21:40:55.139Z,1013.14
2017-03-11T21:45:56.222Z,1013.12
2017-03-11T21:50:51.682Z,1013.12
2017-03-11T21:55:48.082Z,1013.21
2017-03-11T22:00:44.502Z,1013.20
2017-03-11T22:05:41.502Z,1013.20
2017-03-11T22:10:37.794Z,1013.19
2017-03-11T22:15:34.464Z,1013.19
2017-03-11T22:20:30.943Z,1013.13
2017-03-11T22:25:27.383Z,1013.08
2017-03-11T22:30:23.604Z,1013.12
2017-03-11T22:35:20.540Z,1013.11
2017-03-11T22:40:17.124Z,1013.05
2017-03-11T22:45:13.643Z,1013.02
2017-03-11T22:50:10.285Z,1012.93
2017-03-11T22:55:07.046Z,1012.82
2017-03-11T23:00:03.484Z,1012.84
2017-03-11T23:05:00.148Z,1012.81
2017-03-11T23:09:56.767Z,1012.76
2017-03-11T23:14:53.245Z,1012.74
2017-03-11T23:19:49.714Z,1012.81
2017-03-11T23:24:46.386Z,1012.67
2017-03-11T23:29:42.756Z,1012.66
2017-03-11T23:34:39.482Z,1012.57
2017-03-11T23:39:35.948Z,1012.57
2017-03-11T23:44:32.406Z,1012.58
2017-03-11T23:49:29.670Z,1012.56
2017-03-11T23:54:26.246Z,1012.55
2017-03-11T23:59:22.604Z,1012.54
